L'viv, Ukraine
Current Conditions -  °F | °C
As of 5:30 PM on Thursday 30 Oct 2014 (Local Time) from UKLL Reporting Station
Clear Clear  
Wind Chill: 45°   Ceiling: Unl
Heat Index: 48°   Visibility: 4mi
Dew Point: 36°   Wind: 7mph
Humidity: 62%   Direction: 280°W
Pressure: 30.21"   Gusts: NA
Location:  49.84°N, 24.03°E
Report Text: UKLL 301430Z 28003MPS 7000 SKC 09/02 Q1023 31CLRD80 NOSIG
Loading
Personal Weather Stations






























Interactive Weather Map
Tropical Storm Tracking
New forecast layout! Learn more

10-Day Weather Forecast

Advertisements
Track Severe Weather on mobile